sensor_id;sensor_type;location;lat;lon;timestamp;P1;P2;P0
47741;PMS5003;33504;52.066;6.096;2022-08-14T00:01:04;22;21;
47741;PMS5003;33504;52.066;6.096;2022-08-14T00:03:31;20;20;
47741;PMS5003;33504;52.066;6.096;2022-08-14T00:05:59;22;21;
47741;PMS5003;33504;52.066;6.096;2022-08-14T00:08:27;17;17;
47741;PMS5003;33504;52.066;6.096;2022-08-14T00:10:54;21;20;
47741;PMS5003;33504;52.066;6.096;2022-08-14T00:13:22;25;25;
47741;PMS5003;33504;52.066;6.096;2022-08-14T00:15:51;20;20;
47741;PMS5003;33504;52.066;6.096;2022-08-14T00:18:18;23;20;
47741;PMS5003;33504;52.066;6.096;2022-08-14T00:20:48;22;22;
47741;PMS5003;33504;52.066;6.096;2022-08-14T00:23:16;20;20;
47741;PMS5003;33504;52.066;6.096;2022-08-14T00:25:45;25;24;
47741;PMS5003;33504;52.066;6.096;2022-08-14T00:28:15;24;24;
47741;PMS5003;33504;52.066;6.096;2022-08-14T00:30:42;22;21;
47741;PMS5003;33504;52.066;6.096;2022-08-14T00:33:10;21;20;
47741;PMS5003;33504;52.066;6.096;2022-08-14T00:35:36;24;23;
47741;PMS5003;33504;52.066;6.096;2022-08-14T00:38:03;23;22;
47741;PMS5003;33504;52.066;6.096;2022-08-14T00:40:30;24;24;
47741;PMS5003;33504;52.066;6.096;2022-08-14T00:42:57;23;23;
47741;PMS5003;33504;52.066;6.096;2022-08-14T00:45:24;24;23;
47741;PMS5003;33504;52.066;6.096;2022-08-14T00:47:52;23;23;
47741;PMS5003;33504;52.066;6.096;2022-08-14T00:50:19;23;21;
47741;PMS5003;33504;52.066;6.096;2022-08-14T00:52:49;24;24;
47741;PMS5003;33504;52.066;6.096;2022-08-14T00:55:17;23;22;
47741;PMS5003;33504;52.066;6.096;2022-08-14T00:57:46;21;21;
47741;PMS5003;33504;52.066;6.096;2022-08-14T01:00:14;21;21;
47741;PMS5003;33504;52.066;6.096;2022-08-14T01:02:42;27;27;
47741;PMS5003;33504;52.066;6.096;2022-08-14T01:05:10;21;21;
47741;PMS5003;33504;52.066;6.096;2022-08-14T01:07:37;22;22;
47741;PMS5003;33504;52.066;6.096;2022-08-14T01:10:06;24;24;
47741;PMS5003;33504;52.066;6.096;2022-08-14T01:12:34;25;24;
47741;PMS5003;33504;52.066;6.096;2022-08-14T01:15:01;26;26;
47741;PMS5003;33504;52.066;6.096;2022-08-14T01:17:29;25;24;
47741;PMS5003;33504;52.066;6.096;2022-08-14T01:19:57;28;28;
47741;PMS5003;33504;52.066;6.096;2022-08-14T01:22:26;22;21;
47741;PMS5003;33504;52.066;6.096;2022-08-14T01:24:53;27;25;
47741;PMS5003;33504;52.066;6.096;2022-08-14T01:27:21;24;23;
47741;PMS5003;33504;52.066;6.096;2022-08-14T01:29:50;26;23;
47741;PMS5003;33504;52.066;6.096;2022-08-14T01:32:19;22;22;
47741;PMS5003;33504;52.066;6.096;2022-08-14T01:34:47;21;21;
47741;PMS5003;33504;52.066;6.096;2022-08-14T01:37:15;26;26;
47741;PMS5003;33504;52.066;6.096;2022-08-14T01:39:41;26;25;
47741;PMS5003;33504;52.066;6.096;2022-08-14T01:42:09;26;26;
47741;PMS5003;33504;52.066;6.096;2022-08-14T01:44:36;29;28;
47741;PMS5003;33504;52.066;6.096;2022-08-14T01:47:05;27;27;
47741;PMS5003;33504;52.066;6.096;2022-08-14T01:49:33;30;30;
47741;PMS5003;33504;52.066;6.096;2022-08-14T01:52:00;28;27;
47741;PMS5003;33504;52.066;6.096;2022-08-14T01:54:28;31;30;
47741;PMS5003;33504;52.066;6.096;2022-08-14T01:56:56;33;32;
47741;PMS5003;33504;52.066;6.096;2022-08-14T01:59:23;36;36;
47741;PMS5003;33504;52.066;6.096;2022-08-14T02:01:52;39;39;
47741;PMS5003;33504;52.066;6.096;2022-08-14T02:04:22;30;29;
47741;PMS5003;33504;52.066;6.096;2022-08-14T02:06:50;28;28;
47741;PMS5003;33504;52.066;6.096;2022-08-14T02:09:19;61;61;
47741;PMS5003;33504;52.066;6.096;2022-08-14T02:11:46;79;78;
47741;PMS5003;33504;52.066;6.096;2022-08-14T02:14:15;44;44;
47741;PMS5003;33504;52.066;6.096;2022-08-14T02:16:43;48;47;
47741;PMS5003;33504;52.066;6.096;2022-08-14T02:19:13;35;34;
47741;PMS5003;33504;52.066;6.096;2022-08-14T02:21:42;41;41;
47741;PMS5003;33504;52.066;6.096;2022-08-14T02:24:10;44;43;
47741;PMS5003;33504;52.066;6.096;2022-08-14T02:26:40;37;37;
47741;PMS5003;33504;52.066;6.096;2022-08-14T02:29:09;33;32;
47741;PMS5003;33504;52.066;6.096;2022-08-14T02:31:38;65;65;
47741;PMS5003;33504;52.066;6.096;2022-08-14T02:34:07;32;31;
47741;PMS5003;33504;52.066;6.096;2022-08-14T02:36:36;46;44;
47741;PMS5003;33504;52.066;6.096;2022-08-14T02:39:04;39;38;
47741;PMS5003;33504;52.066;6.096;2022-08-14T02:41:31;37;36;
47741;PMS5003;33504;52.066;6.096;2022-08-14T02:43:59;44;44;
47741;PMS5003;33504;52.066;6.096;2022-08-14T02:46:26;37;35;
47741;PMS5003;33504;52.066;6.096;2022-08-14T02:48:53;60;60;
47741;PMS5003;33504;52.066;6.096;2022-08-14T02:51:21;45;45;
47741;PMS5003;33504;52.066;6.096;2022-08-14T02:53:48;37;36;
47741;PMS5003;33504;52.066;6.096;2022-08-14T02:56:16;46;46;
47741;PMS5003;33504;52.066;6.096;2022-08-14T02:58:45;35;33;
47741;PMS5003;33504;52.066;6.096;2022-08-14T03:01:14;39;37;
47741;PMS5003;33504;52.066;6.096;2022-08-14T03:03:43;51;50;
47741;PMS5003;33504;52.066;6.096;2022-08-14T03:06:11;54;54;
47741;PMS5003;33504;52.066;6.096;2022-08-14T03:08:40;42;41;
47741;PMS5003;33504;52.066;6.096;2022-08-14T03:11:09;37;36;
47741;PMS5003;33504;52.066;6.096;2022-08-14T03:13:38;45;45;
47741;PMS5003;33504;52.066;6.096;2022-08-14T03:16:08;32;32;
47741;PMS5003;33504;52.066;6.096;2022-08-14T03:18:36;48;48;
47741;PMS5003;33504;52.066;6.096;2022-08-14T03:21:05;49;48;
47741;PMS5003;33504;52.066;6.096;2022-08-14T03:23:32;42;40;
47741;PMS5003;33504;52.066;6.096;2022-08-14T03:26:00;45;45;
47741;PMS5003;33504;52.066;6.096;2022-08-14T03:28:28;42;41;
47741;PMS5003;33504;52.066;6.096;2022-08-14T03:30:55;43;43;
47741;PMS5003;33504;52.066;6.096;2022-08-14T03:33:23;47;47;
47741;PMS5003;33504;52.066;6.096;2022-08-14T03:35:51;44;43;
47741;PMS5003;33504;52.066;6.096;2022-08-14T03:38:18;44;43;
47741;PMS5003;33504;52.066;6.096;2022-08-14T03:40:45;47;47;
47741;PMS5003;33504;52.066;6.096;2022-08-14T03:43:12;59;58;
47741;PMS5003;33504;52.066;6.096;2022-08-14T03:45:39;42;42;
47741;PMS5003;33504;52.066;6.096;2022-08-14T03:48:09;45;45;
47741;PMS5003;33504;52.066;6.096;2022-08-14T03:50:38;55;54;
47741;PMS5003;33504;52.066;6.096;2022-08-14T03:53:06;49;49;
47741;PMS5003;33504;52.066;6.096;2022-08-14T03:55:33;47;46;
47741;PMS5003;33504;52.066;6.096;2022-08-14T03:58:00;53;52;
47741;PMS5003;33504;52.066;6.096;2022-08-14T04:00:27;55;55;
47741;PMS5003;33504;52.066;6.096;2022-08-14T04:02:54;62;62;
47741;PMS5003;33504;52.066;6.096;2022-08-14T04:05:21;54;53;
47741;PMS5003;33504;52.066;6.096;2022-08-14T04:07:48;68;67;
47741;PMS5003;33504;52.066;6.096;2022-08-14T04:10:15;66;65;
47741;PMS5003;33504;52.066;6.096;2022-08-14T04:12:43;57;57;
47741;PMS5003;33504;52.066;6.096;2022-08-14T04:15:10;76;74;
47741;PMS5003;33504;52.066;6.096;2022-08-14T04:17:37;59;59;
47741;PMS5003;33504;52.066;6.096;2022-08-14T04:20:05;95;95;
47741;PMS5003;33504;52.066;6.096;2022-08-14T04:22:32;93;92;
47741;PMS5003;33504;52.066;6.096;2022-08-14T04:25:00;113;113;
47741;PMS5003;33504;52.066;6.096;2022-08-14T04:27:27;100;100;
47741;PMS5003;33504;52.066;6.096;2022-08-14T04:29:54;52;52;
47741;PMS5003;33504;52.066;6.096;2022-08-14T04:32:22;52;52;
47741;PMS5003;33504;52.066;6.096;2022-08-14T04:34:50;32;32;
47741;PMS5003;33504;52.066;6.096;2022-08-14T04:37:19;25;24;
47741;PMS5003;33504;52.066;6.096;2022-08-14T04:39:47;25;25;
47741;PMS5003;33504;52.066;6.096;2022-08-14T04:42:14;26;26;
47741;PMS5003;33504;52.066;6.096;2022-08-14T04:44:42;32;32;
47741;PMS5003;33504;52.066;6.096;2022-08-14T04:47:08;30;30;
47741;PMS5003;33504;52.066;6.096;2022-08-14T04:49:35;29;28;
47741;PMS5003;33504;52.066;6.096;2022-08-14T04:52:03;26;26;
47741;PMS5003;33504;52.066;6.096;2022-08-14T04:54:30;30;28;
47741;PMS5003;33504;52.066;6.096;2022-08-14T04:56:57;26;26;
47741;PMS5003;33504;52.066;6.096;2022-08-14T04:59:25;30;29;
47741;PMS5003;33504;52.066;6.096;2022-08-14T05:01:51;31;27;
47741;PMS5003;33504;52.066;6.096;2022-08-14T05:04:19;26;26;
47741;PMS5003;33504;52.066;6.096;2022-08-14T05:06:48;26;26;
47741;PMS5003;33504;52.066;6.096;2022-08-14T05:09:15;27;26;
47741;PMS5003;33504;52.066;6.096;2022-08-14T05:11:42;29;29;
47741;PMS5003;33504;52.066;6.096;2022-08-14T05:14:10;28;27;
47741;PMS5003;33504;52.066;6.096;2022-08-14T05:16:37;24;23;
47741;PMS5003;33504;52.066;6.096;2022-08-14T05:19:05;28;28;
47741;PMS5003;33504;52.066;6.096;2022-08-14T05:21:32;24;24;
47741;PMS5003;33504;52.066;6.096;2022-08-14T05:23:59;30;29;
47741;PMS5003;33504;52.066;6.096;2022-08-14T05:26:26;31;27;
47741;PMS5003;33504;52.066;6.096;2022-08-14T05:28:53;27;26;
47741;PMS5003;33504;52.066;6.096;2022-08-14T05:31:20;28;26;
47741;PMS5003;33504;52.066;6.096;2022-08-14T05:33:47;30;27;
47741;PMS5003;33504;52.066;6.096;2022-08-14T05:36:14;27;25;
47741;PMS5003;33504;52.066;6.096;2022-08-14T05:38:42;29;27;
47741;PMS5003;33504;52.066;6.096;2022-08-14T05:41:11;25;24;
47741;PMS5003;33504;52.066;6.096;2022-08-14T05:43:41;25;25;
47741;PMS5003;33504;52.066;6.096;2022-08-14T05:46:08;26;26;
47741;PMS5003;33504;52.066;6.096;2022-08-14T05:48:37;29;29;
47741;PMS5003;33504;52.066;6.096;2022-08-14T05:51:05;27;26;
47741;PMS5003;33504;52.066;6.096;2022-08-14T05:53:32;26;25;
47741;PMS5003;33504;52.066;6.096;2022-08-14T05:55:59;27;27;
47741;PMS5003;33504;52.066;6.096;2022-08-14T05:58:27;28;27;
47741;PMS5003;33504;52.066;6.096;2022-08-14T06:00:54;28;27;
47741;PMS5003;33504;52.066;6.096;2022-08-14T06:03:21;31;31;
47741;PMS5003;33504;52.066;6.096;2022-08-14T06:05:50;29;28;
47741;PMS5003;33504;52.066;6.096;2022-08-14T06:08:19;45;45;
47741;PMS5003;33504;52.066;6.096;2022-08-14T06:10:48;47;47;
47741;PMS5003;33504;52.066;6.096;2022-08-14T06:13:16;37;35;
47741;PMS5003;33504;52.066;6.096;2022-08-14T06:15:43;50;50;
47741;PMS5003;33504;52.066;6.096;2022-08-14T06:18:10;38;38;
47741;PMS5003;33504;52.066;6.096;2022-08-14T06:20:37;32;32;
47741;PMS5003;33504;52.066;6.096;2022-08-14T06:23:05;32;31;
47741;PMS5003;33504;52.066;6.096;2022-08-14T06:25:33;34;33;
47741;PMS5003;33504;52.066;6.096;2022-08-14T06:28:00;32;32;
47741;PMS5003;33504;52.066;6.096;2022-08-14T06:30:28;34;31;
47741;PMS5003;33504;52.066;6.096;2022-08-14T06:32:57;38;37;
47741;PMS5003;33504;52.066;6.096;2022-08-14T06:35:25;36;34;
47741;PMS5003;33504;52.066;6.096;2022-08-14T06:37:52;32;30;
47741;PMS5003;33504;52.066;6.096;2022-08-14T06:40:22;32;30;
47741;PMS5003;33504;52.066;6.096;2022-08-14T06:42:50;33;33;
47741;PMS5003;33504;52.066;6.096;2022-08-14T06:45:18;30;29;
47741;PMS5003;33504;52.066;6.096;2022-08-14T06:47:46;30;30;
47741;PMS5003;33504;52.066;6.096;2022-08-14T06:50:14;30;30;
47741;PMS5003;33504;52.066;6.096;2022-08-14T06:52:44;33;31;
47741;PMS5003;33504;52.066;6.096;2022-08-14T06:55:11;31;31;
47741;PMS5003;33504;52.066;6.096;2022-08-14T06:57:40;36;35;
47741;PMS5003;33504;52.066;6.096;2022-08-14T07:00:09;32;32;
47741;PMS5003;33504;52.066;6.096;2022-08-14T07:02:38;34;33;
47741;PMS5003;33504;52.066;6.096;2022-08-14T07:05:05;31;31;
47741;PMS5003;33504;52.066;6.096;2022-08-14T07:07:36;35;34;
47741;PMS5003;33504;52.066;6.096;2022-08-14T07:10:05;31;31;
47741;PMS5003;33504;52.066;6.096;2022-08-14T07:12:32;32;32;
47741;PMS5003;33504;52.066;6.096;2022-08-14T07:15:00;29;28;
47741;PMS5003;33504;52.066;6.096;2022-08-14T07:17:27;34;32;
47741;PMS5003;33504;52.066;6.096;2022-08-14T07:19:54;30;30;
47741;PMS5003;33504;52.066;6.096;2022-08-14T07:22:21;30;30;
47741;PMS5003;33504;52.066;6.096;2022-08-14T07:24:49;25;25;
47741;PMS5003;33504;52.066;6.096;2022-08-14T07:27:16;32;32;
47741;PMS5003;33504;52.066;6.096;2022-08-14T07:29:43;32;30;
47741;PMS5003;33504;52.066;6.096;2022-08-14T07:32:10;26;26;
47741;PMS5003;33504;52.066;6.096;2022-08-14T07:34:38;29;28;
47741;PMS5003;33504;52.066;6.096;2022-08-14T07:37:05;28;28;
47741;PMS5003;33504;52.066;6.096;2022-08-14T07:39:32;29;28;
47741;PMS5003;33504;52.066;6.096;2022-08-14T07:41:59;26;26;
47741;PMS5003;33504;52.066;6.096;2022-08-14T07:44:27;30;30;
47741;PMS5003;33504;52.066;6.096;2022-08-14T07:46:54;36;36;
47741;PMS5003;33504;52.066;6.096;2022-08-14T07:49:21;32;31;
47741;PMS5003;33504;52.066;6.096;2022-08-14T07:51:48;28;28;
47741;PMS5003;33504;52.066;6.096;2022-08-14T07:54:15;26;25;
47741;PMS5003;33504;52.066;6.096;2022-08-14T07:56:43;26;26;
47741;PMS5003;33504;52.066;6.096;2022-08-14T07:59:09;24;22;
47741;PMS5003;33504;52.066;6.096;2022-08-14T08:01:37;23;23;
47741;PMS5003;33504;52.066;6.096;2022-08-14T08:04:05;22;22;
47741;PMS5003;33504;52.066;6.096;2022-08-14T08:06:33;25;25;
47741;PMS5003;33504;52.066;6.096;2022-08-14T08:09:00;24;24;
47741;PMS5003;33504;52.066;6.096;2022-08-14T08:11:28;22;21;
47741;PMS5003;33504;52.066;6.096;2022-08-14T08:13:58;26;26;
47741;PMS5003;33504;52.066;6.096;2022-08-14T08:16:28;27;27;
47741;PMS5003;33504;52.066;6.096;2022-08-14T08:18:56;24;24;
47741;PMS5003;33504;52.066;6.096;2022-08-14T08:21:22;28;27;
47741;PMS5003;33504;52.066;6.096;2022-08-14T08:23:49;27;26;
47741;PMS5003;33504;52.066;6.096;2022-08-14T08:26:17;23;23;
47741;PMS5003;33504;52.066;6.096;2022-08-14T08:28:54;27;26;
47741;PMS5003;33504;52.066;6.096;2022-08-14T08:31:22;22;21;
47741;PMS5003;33504;52.066;6.096;2022-08-14T08:33:50;23;21;
47741;PMS5003;33504;52.066;6.096;2022-08-14T08:36:18;24;24;
47741;PMS5003;33504;52.066;6.096;2022-08-14T08:38:47;23;22;
47741;PMS5003;33504;52.066;6.096;2022-08-14T08:41:14;21;21;
47741;PMS5003;33504;52.066;6.096;2022-08-14T08:43:42;24;23;
47741;PMS5003;33504;52.066;6.096;2022-08-14T08:46:10;20;20;
47741;PMS5003;33504;52.066;6.096;2022-08-14T08:48:46;22;22;
47741;PMS5003;33504;52.066;6.096;2022-08-14T08:51:19;24;24;
47741;PMS5003;33504;52.066;6.096;2022-08-14T08:53:54;19;19;
47741;PMS5003;33504;52.066;6.096;2022-08-14T08:56:40;23;23;
47741;PMS5003;33504;52.066;6.096;2022-08-14T08:59:18;24;24;
47741;PMS5003;33504;52.066;6.096;2022-08-14T09:01:48;22;21;
47741;PMS5003;33504;52.066;6.096;2022-08-14T09:04:16;25;25;
47741;PMS5003;33504;52.066;6.096;2022-08-14T09:06:44;23;21;
47741;PMS5003;33504;52.066;6.096;2022-08-14T09:09:20;20;20;
47741;PMS5003;33504;52.066;6.096;2022-08-14T09:11:49;21;21;
47741;PMS5003;33504;52.066;6.096;2022-08-14T09:14:17;23;23;
47741;PMS5003;33504;52.066;6.096;2022-08-14T09:16:44;21;20;
47741;PMS5003;33504;52.066;6.096;2022-08-14T09:19:11;18;18;
47741;PMS5003;33504;52.066;6.096;2022-08-14T09:21:38;19;19;
47741;PMS5003;33504;52.066;6.096;2022-08-14T09:24:06;21;20;
47741;PMS5003;33504;52.066;6.096;2022-08-14T09:26:35;23;22;
47741;PMS5003;33504;52.066;6.096;2022-08-14T09:29:03;21;21;
47741;PMS5003;33504;52.066;6.096;2022-08-14T09:31:32;20;20;
47741;PMS5003;33504;52.066;6.096;2022-08-14T09:34:02;22;21;
47741;PMS5003;33504;52.066;6.096;2022-08-14T09:36:44;23;22;
47741;PMS5003;33504;52.066;6.096;2022-08-14T09:39:21;22;22;
47741;PMS5003;33504;52.066;6.096;2022-08-14T09:42:02;22;22;
47741;PMS5003;33504;52.066;6.096;2022-08-14T09:44:43;21;21;
47741;PMS5003;33504;52.066;6.096;2022-08-14T09:47:18;19;19;
47741;PMS5003;33504;52.066;6.096;2022-08-14T09:49:45;21;19;
47741;PMS5003;33504;52.066;6.096;2022-08-14T09:52:13;21;20;
47741;PMS5003;33504;52.066;6.096;2022-08-14T09:54:42;21;19;
47741;PMS5003;33504;52.066;6.096;2022-08-14T09:57:10;20;19;
47741;PMS5003;33504;52.066;6.096;2022-08-14T09:59:50;20;20;
47741;PMS5003;33504;52.066;6.096;2022-08-14T10:02:18;18;18;
47741;PMS5003;33504;52.066;6.096;2022-08-14T10:04:57;19;19;
47741;PMS5003;33504;52.066;6.096;2022-08-14T10:07:30;20;20;
47741;PMS5003;33504;52.066;6.096;2022-08-14T10:09:59;20;20;
47741;PMS5003;33504;52.066;6.096;2022-08-14T10:12:39;23;22;
47741;PMS5003;33504;52.066;6.096;2022-08-14T10:15:17;23;23;
47741;PMS5003;33504;52.066;6.096;2022-08-14T10:17:45;22;21;
47741;PMS5003;33504;52.066;6.096;2022-08-14T10:20:13;17;17;
47741;PMS5003;33504;52.066;6.096;2022-08-14T10:22:41;17;17;
47741;PMS5003;33504;52.066;6.096;2022-08-14T10:25:09;17;17;
47741;PMS5003;33504;52.066;6.096;2022-08-14T10:27:37;23;23;
47741;PMS5003;33504;52.066;6.096;2022-08-14T10:30:10;18;18;
47741;PMS5003;33504;52.066;6.096;2022-08-14T10:32:43;20;20;
47741;PMS5003;33504;52.066;6.096;2022-08-14T10:35:11;21;21;
47741;PMS5003;33504;52.066;6.096;2022-08-14T10:37:39;19;19;
47741;PMS5003;33504;52.066;6.096;2022-08-14T10:40:08;19;19;
47741;PMS5003;33504;52.066;6.096;2022-08-14T10:42:37;19;17;
47741;PMS5003;33504;52.066;6.096;2022-08-14T10:45:15;18;18;
47741;PMS5003;33504;52.066;6.096;2022-08-14T10:47:43;18;18;
47741;PMS5003;33504;52.066;6.096;2022-08-14T10:50:10;17;17;
47741;PMS5003;33504;52.066;6.096;2022-08-14T10:52:37;17;17;
47741;PMS5003;33504;52.066;6.096;2022-08-14T10:55:04;18;17;
47741;PMS5003;33504;52.066;6.096;2022-08-14T10:57:44;17;17;
47741;PMS5003;33504;52.066;6.096;2022-08-14T11:00:14;18;18;
47741;PMS5003;33504;52.066;6.096;2022-08-14T11:02:43;17;17;
47741;PMS5003;33504;52.066;6.096;2022-08-14T11:05:11;19;19;
47741;PMS5003;33504;52.066;6.096;2022-08-14T11:07:41;21;21;
47741;PMS5003;33504;52.066;6.096;2022-08-14T11:10:20;20;20;
47741;PMS5003;33504;52.066;6.096;2022-08-14T11:12:50;18;18;
47741;PMS5003;33504;52.066;6.096;2022-08-14T11:15:21;17;17;
47741;PMS5003;33504;52.066;6.096;2022-08-14T11:17:49;19;18;
47741;PMS5003;33504;52.066;6.096;2022-08-14T11:20:19;18;18;
47741;PMS5003;33504;52.066;6.096;2022-08-14T11:22:50;16;15;
47741;PMS5003;33504;52.066;6.096;2022-08-14T11:25:19;16;16;
47741;PMS5003;33504;52.066;6.096;2022-08-14T11:27:49;17;17;
47741;PMS5003;33504;52.066;6.096;2022-08-14T11:30:19;21;20;
47741;PMS5003;33504;52.066;6.096;2022-08-14T11:32:48;18;18;
47741;PMS5003;33504;52.066;6.096;2022-08-14T11:35:17;17;17;
47741;PMS5003;33504;52.066;6.096;2022-08-14T11:37:49;15;15;
47741;PMS5003;33504;52.066;6.096;2022-08-14T11:40:17;16;16;
47741;PMS5003;33504;52.066;6.096;2022-08-14T11:42:46;17;17;
47741;PMS5003;33504;52.066;6.096;2022-08-14T11:45:14;18;18;
47741;PMS5003;33504;52.066;6.096;2022-08-14T11:47:42;19;19;
47741;PMS5003;33504;52.066;6.096;2022-08-14T11:50:11;17;17;
47741;PMS5003;33504;52.066;6.096;2022-08-14T11:52:40;18;18;
47741;PMS5003;33504;52.066;6.096;2022-08-14T11:55:07;16;16;
47741;PMS5003;33504;52.066;6.096;2022-08-14T11:57:36;18;18;
47741;PMS5003;33504;52.066;6.096;2022-08-14T12:00:04;17;17;
47741;PMS5003;33504;52.066;6.096;2022-08-14T12:02:34;17;17;
47741;PMS5003;33504;52.066;6.096;2022-08-14T12:05:02;17;17;
47741;PMS5003;33504;52.066;6.096;2022-08-14T12:07:30;17;17;
47741;PMS5003;33504;52.066;6.096;2022-08-14T12:09:57;15;15;
47741;PMS5003;33504;52.066;6.096;2022-08-14T12:12:25;16;16;
47741;PMS5003;33504;52.066;6.096;2022-08-14T12:14:55;18;18;
47741;PMS5003;33504;52.066;6.096;2022-08-14T12:17:23;15;15;
47741;PMS5003;33504;52.066;6.096;2022-08-14T12:19:52;16;15;
47741;PMS5003;33504;52.066;6.096;2022-08-14T12:22:37;15;15;
47741;PMS5003;33504;52.066;6.096;2022-08-14T12:25:07;15;14;
47741;PMS5003;33504;52.066;6.096;2022-08-14T12:27:38;15;15;
47741;PMS5003;33504;52.066;6.096;2022-08-14T12:30:08;17;17;
47741;PMS5003;33504;52.066;6.096;2022-08-14T12:32:40;13;13;
47741;PMS5003;33504;52.066;6.096;2022-08-14T12:35:08;14;14;
47741;PMS5003;33504;52.066;6.096;2022-08-14T12:37:36;16;14;
47741;PMS5003;33504;52.066;6.096;2022-08-14T12:40:07;15;14;
47741;PMS5003;33504;52.066;6.096;2022-08-14T12:42:35;16;16;
47741;PMS5003;33504;52.066;6.096;2022-08-14T12:45:03;14;14;
47741;PMS5003;33504;52.066;6.096;2022-08-14T12:47:30;15;14;
47741;PMS5003;33504;52.066;6.096;2022-08-14T12:49:58;16;16;
47741;PMS5003;33504;52.066;6.096;2022-08-14T12:52:26;16;16;
47741;PMS5003;33504;52.066;6.096;2022-08-14T12:54:56;15;14;
47741;PMS5003;33504;52.066;6.096;2022-08-14T12:57:32;14;14;
47741;PMS5003;33504;52.066;6.096;2022-08-14T13:00:07;16;16;
47741;PMS5003;33504;52.066;6.096;2022-08-14T13:02:37;14;14;
47741;PMS5003;33504;52.066;6.096;2022-08-14T13:05:06;14;14;
47741;PMS5003;33504;52.066;6.096;2022-08-14T13:07:34;14;14;
47741;PMS5003;33504;52.066;6.096;2022-08-14T13:10:01;14;14;
47741;PMS5003;33504;52.066;6.096;2022-08-14T13:12:29;15;15;
47741;PMS5003;33504;52.066;6.096;2022-08-14T13:14:58;14;14;
47741;PMS5003;33504;52.066;6.096;2022-08-14T13:17:25;13;13;
47741;PMS5003;33504;52.066;6.096;2022-08-14T13:19:55;13;12;
47741;PMS5003;33504;52.066;6.096;2022-08-14T13:22:23;12;12;
47741;PMS5003;33504;52.066;6.096;2022-08-14T13:24:50;12;11;
47741;PMS5003;33504;52.066;6.096;2022-08-14T13:27:18;14;14;
47741;PMS5003;33504;52.066;6.096;2022-08-14T13:29:49;12;12;
47741;PMS5003;33504;52.066;6.096;2022-08-14T13:32:18;14;14;
47741;PMS5003;33504;52.066;6.096;2022-08-14T13:34:46;12;12;
47741;PMS5003;33504;52.066;6.096;2022-08-14T13:37:14;12;12;
47741;PMS5003;33504;52.066;6.096;2022-08-14T13:39:45;14;13;
47741;PMS5003;33504;52.066;6.096;2022-08-14T13:42:13;13;13;
47741;PMS5003;33504;52.066;6.096;2022-08-14T13:44:44;13;13;
47741;PMS5003;33504;52.066;6.096;2022-08-14T13:47:11;12;12;
47741;PMS5003;33504;52.066;6.096;2022-08-14T13:49:38;14;14;
47741;PMS5003;33504;52.066;6.096;2022-08-14T13:52:05;13;13;
47741;PMS5003;33504;52.066;6.096;2022-08-14T13:54:35;12;12;
47741;PMS5003;33504;52.066;6.096;2022-08-14T13:57:05;13;13;
47741;PMS5003;33504;52.066;6.096;2022-08-14T13:59:36;12;12;
47741;PMS5003;33504;52.066;6.096;2022-08-14T14:02:09;12;11;
47741;PMS5003;33504;52.066;6.096;2022-08-14T14:04:38;12;12;
47741;PMS5003;33504;52.066;6.096;2022-08-14T14:07:07;13;12;
47741;PMS5003;33504;52.066;6.096;2022-08-14T14:09:35;14;14;
47741;PMS5003;33504;52.066;6.096;2022-08-14T14:12:06;13;13;
47741;PMS5003;33504;52.066;6.096;2022-08-14T14:14:34;16;16;
47741;PMS5003;33504;52.066;6.096;2022-08-14T14:17:01;13;13;
47741;PMS5003;33504;52.066;6.096;2022-08-14T14:19:29;17;17;
47741;PMS5003;33504;52.066;6.096;2022-08-14T14:21:57;16;16;
47741;PMS5003;33504;52.066;6.096;2022-08-14T14:24:26;13;13;
47741;PMS5003;33504;52.066;6.096;2022-08-14T14:26:52;16;15;
47741;PMS5003;33504;52.066;6.096;2022-08-14T14:29:24;13;13;
47741;PMS5003;33504;52.066;6.096;2022-08-14T14:31:52;13;13;
47741;PMS5003;33504;52.066;6.096;2022-08-14T14:34:19;17;16;
47741;PMS5003;33504;52.066;6.096;2022-08-14T14:36:50;13;13;
47741;PMS5003;33504;52.066;6.096;2022-08-14T14:39:19;13;13;
47741;PMS5003;33504;52.066;6.096;2022-08-14T14:41:48;15;14;
47741;PMS5003;33504;52.066;6.096;2022-08-14T14:44:19;13;13;
47741;PMS5003;33504;52.066;6.096;2022-08-14T14:46:49;12;12;
47741;PMS5003;33504;52.066;6.096;2022-08-14T14:49:17;16;15;
47741;PMS5003;33504;52.066;6.096;2022-08-14T14:51:45;14;14;
47741;PMS5003;33504;52.066;6.096;2022-08-14T14:54:13;15;14;
47741;PMS5003;33504;52.066;6.096;2022-08-14T14:56:43;14;14;
47741;PMS5003;33504;52.066;6.096;2022-08-14T14:59:10;15;15;
47741;PMS5003;33504;52.066;6.096;2022-08-14T15:01:38;16;16;
47741;PMS5003;33504;52.066;6.096;2022-08-14T15:04:09;14;14;
47741;PMS5003;33504;52.066;6.096;2022-08-14T15:06:36;15;15;
47741;PMS5003;33504;52.066;6.096;2022-08-14T15:09:03;14;14;
47741;PMS5003;33504;52.066;6.096;2022-08-14T15:11:30;14;14;
47741;PMS5003;33504;52.066;6.096;2022-08-14T15:13:57;14;14;
47741;PMS5003;33504;52.066;6.096;2022-08-14T15:16:24;13;13;
47741;PMS5003;33504;52.066;6.096;2022-08-14T15:18:52;14;13;
47741;PMS5003;33504;52.066;6.096;2022-08-14T15:21:19;22;22;
47741;PMS5003;33504;52.066;6.096;2022-08-14T15:23:46;16;16;
47741;PMS5003;33504;52.066;6.096;2022-08-14T15:26:13;15;15;
47741;PMS5003;33504;52.066;6.096;2022-08-14T15:28:41;15;15;
47741;PMS5003;33504;52.066;6.096;2022-08-14T15:31:08;15;15;
47741;PMS5003;33504;52.066;6.096;2022-08-14T15:33:35;14;14;
47741;PMS5003;33504;52.066;6.096;2022-08-14T15:36:03;13;13;
47741;PMS5003;33504;52.066;6.096;2022-08-14T15:38:30;14;13;
47741;PMS5003;33504;52.066;6.096;2022-08-14T15:40:58;13;13;
47741;PMS5003;33504;52.066;6.096;2022-08-14T15:43:26;12;12;
47741;PMS5003;33504;52.066;6.096;2022-08-14T15:45:53;14;14;
47741;PMS5003;33504;52.066;6.096;2022-08-14T15:48:20;15;15;
47741;PMS5003;33504;52.066;6.096;2022-08-14T15:50:48;15;15;
47741;PMS5003;33504;52.066;6.096;2022-08-14T15:53:15;18;17;
47741;PMS5003;33504;52.066;6.096;2022-08-14T15:55:42;16;16;
47741;PMS5003;33504;52.066;6.096;2022-08-14T15:58:09;14;14;
47741;PMS5003;33504;52.066;6.096;2022-08-14T16:00:36;19;19;
47741;PMS5003;33504;52.066;6.096;2022-08-14T16:03:03;15;14;
47741;PMS5003;33504;52.066;6.096;2022-08-14T16:05:30;15;15;
47741;PMS5003;33504;52.066;6.096;2022-08-14T16:07:57;14;14;
47741;PMS5003;33504;52.066;6.096;2022-08-14T16:10:25;17;17;
47741;PMS5003;33504;52.066;6.096;2022-08-14T16:12:52;16;16;
47741;PMS5003;33504;52.066;6.096;2022-08-14T16:15:19;15;15;
47741;PMS5003;33504;52.066;6.096;2022-08-14T16:17:46;14;14;
47741;PMS5003;33504;52.066;6.096;2022-08-14T16:20:14;15;15;
47741;PMS5003;33504;52.066;6.096;2022-08-14T16:22:42;16;15;
47741;PMS5003;33504;52.066;6.096;2022-08-14T16:25:10;13;13;